sensor_id;sensor_type;location;lat;lon;timestamp;P1;durP1;ratioP1;P2;durP2;ratioP2
79227;SDS011;75303;53.496;10.214;2024-03-08T00:00:02;12.07;;;3.88;;
79227;SDS011;75303;53.496;10.214;2024-03-08T00:02:38;10.57;;;4.22;;
79227;SDS011;75303;53.496;10.214;2024-03-08T00:05:04;11.70;;;3.95;;
79227;SDS011;75303;53.496;10.214;2024-03-08T00:07:30;10.25;;;3.53;;
79227;SDS011;75303;53.496;10.214;2024-03-08T00:09:56;10.33;;;4.17;;
79227;SDS011;75303;53.496;10.214;2024-03-08T00:12:21;9.07;;;3.47;;
79227;SDS011;75303;53.496;10.214;2024-03-08T00:14:46;10.30;;;3.73;;
79227;SDS011;75303;53.496;10.214;2024-03-08T00:17:11;12.37;;;4.37;;
79227;SDS011;75303;53.496;10.214;2024-03-08T00:19:36;12.63;;;3.70;;
79227;SDS011;75303;53.496;10.214;2024-03-08T00:22:02;9.07;;;3.57;;
79227;SDS011;75303;53.496;10.214;2024-03-08T00:24:27;11.90;;;3.77;;
79227;SDS011;75303;53.496;10.214;2024-03-08T00:26:53;7.82;;;2.67;;
79227;SDS011;75303;53.496;10.214;2024-03-08T00:29:19;8.50;;;3.28;;
79227;SDS011;75303;53.496;10.214;2024-03-08T00:31:44;11.17;;;4.00;;
79227;SDS011;75303;53.496;10.214;2024-03-08T00:34:09;11.77;;;4.23;;
79227;SDS011;75303;53.496;10.214;2024-03-08T00:36:36;10.35;;;3.40;;
79227;SDS011;75303;53.496;10.214;2024-03-08T00:39:02;8.77;;;4.22;;
79227;SDS011;75303;53.496;10.214;2024-03-08T00:41:31;9.35;;;3.42;;
79227;SDS011;75303;53.496;10.214;2024-03-08T00:43:56;8.10;;;3.05;;
79227;SDS011;75303;53.496;10.214;2024-03-08T00:46:21;9.17;;;3.77;;
79227;SDS011;75303;53.496;10.214;2024-03-08T00:48:47;9.30;;;3.87;;
79227;SDS011;75303;53.496;10.214;2024-03-08T00:51:12;9.57;;;3.77;;
79227;SDS011;75303;53.496;10.214;2024-03-08T00:53:37;11.95;;;3.72;;
79227;SDS011;75303;53.496;10.214;2024-03-08T00:56:03;12.33;;;4.03;;
79227;SDS011;75303;53.496;10.214;2024-03-08T00:58:29;10.05;;;4.07;;
79227;SDS011;75303;53.496;10.214;2024-03-08T01:00:55;13.52;;;3.97;;
79227;SDS011;75303;53.496;10.214;2024-03-08T01:03:22;12.77;;;4.50;;
79227;SDS011;75303;53.496;10.214;2024-03-08T01:05:47;10.83;;;3.50;;
79227;SDS011;75303;53.496;10.214;2024-03-08T01:08:12;8.10;;;3.57;;
79227;SDS011;75303;53.496;10.214;2024-03-08T01:10:37;13.93;;;2.73;;
79227;SDS011;75303;53.496;10.214;2024-03-08T01:13:03;10.70;;;3.57;;
79227;SDS011;75303;53.496;10.214;2024-03-08T01:15:28;10.02;;;4.22;;
79227;SDS011;75303;53.496;10.214;2024-03-08T01:17:53;11.98;;;4.13;;
79227;SDS011;75303;53.496;10.214;2024-03-08T01:20:19;8.70;;;3.60;;
79227;SDS011;75303;53.496;10.214;2024-03-08T01:22:44;11.87;;;3.97;;
79227;SDS011;75303;53.496;10.214;2024-03-08T01:25:09;9.23;;;3.10;;
79227;SDS011;75303;53.496;10.214;2024-03-08T01:27:34;11.23;;;3.87;;
79227;SDS011;75303;53.496;10.214;2024-03-08T01:30:01;10.85;;;3.78;;
79227;SDS011;75303;53.496;10.214;2024-03-08T01:32:27;8.80;;;3.47;;
79227;SDS011;75303;53.496;10.214;2024-03-08T01:34:52;12.33;;;3.80;;
79227;SDS011;75303;53.496;10.214;2024-03-08T01:37:18;9.03;;;3.57;;
79227;SDS011;75303;53.496;10.214;2024-03-08T01:39:43;9.30;;;2.63;;
79227;SDS011;75303;53.496;10.214;2024-03-08T01:42:08;10.63;;;4.00;;
79227;SDS011;75303;53.496;10.214;2024-03-08T01:44:33;9.63;;;3.43;;
79227;SDS011;75303;53.496;10.214;2024-03-08T01:46:59;11.70;;;4.20;;
79227;SDS011;75303;53.496;10.214;2024-03-08T01:49:25;11.32;;;4.63;;
79227;SDS011;75303;53.496;10.214;2024-03-08T01:51:51;9.75;;;4.10;;
79227;SDS011;75303;53.496;10.214;2024-03-08T01:54:17;12.35;;;4.10;;
79227;SDS011;75303;53.496;10.214;2024-03-08T01:56:44;9.48;;;3.22;;
79227;SDS011;75303;53.496;10.214;2024-03-08T01:59:10;10.40;;;3.23;;
79227;SDS011;75303;53.496;10.214;2024-03-08T02:01:35;13.00;;;4.57;;
79227;SDS011;75303;53.496;10.214;2024-03-08T02:04:00;12.10;;;4.32;;
79227;SDS011;75303;53.496;10.214;2024-03-08T02:06:26;10.60;;;3.87;;
79227;SDS011;75303;53.496;10.214;2024-03-08T02:08:51;11.07;;;4.00;;
79227;SDS011;75303;53.496;10.214;2024-03-08T02:11:16;8.15;;;3.08;;
79227;SDS011;75303;53.496;10.214;2024-03-08T02:13:42;11.55;;;3.97;;
79227;SDS011;75303;53.496;10.214;2024-03-08T02:16:08;12.15;;;3.88;;
79227;SDS011;75303;53.496;10.214;2024-03-08T02:18:33;11.35;;;3.22;;
79227;SDS011;75303;53.496;10.214;2024-03-08T02:20:59;9.02;;;3.63;;
79227;SDS011;75303;53.496;10.214;2024-03-08T02:23:26;11.02;;;3.67;;
79227;SDS011;75303;53.496;10.214;2024-03-08T02:25:51;9.45;;;4.25;;
79227;SDS011;75303;53.496;10.214;2024-03-08T02:28:18;9.93;;;3.60;;
79227;SDS011;75303;53.496;10.214;2024-03-08T02:30:45;13.55;;;5.00;;
79227;SDS011;75303;53.496;10.214;2024-03-08T02:33:13;8.38;;;3.67;;
79227;SDS011;75303;53.496;10.214;2024-03-08T02:35:38;12.68;;;3.88;;
79227;SDS011;75303;53.496;10.214;2024-03-08T02:38:03;9.73;;;3.77;;
79227;SDS011;75303;53.496;10.214;2024-03-08T02:40:29;10.73;;;4.03;;
79227;SDS011;75303;53.496;10.214;2024-03-08T02:42:55;10.50;;;4.00;;
79227;SDS011;75303;53.496;10.214;2024-03-08T02:45:20;11.70;;;2.90;;
79227;SDS011;75303;53.496;10.214;2024-03-08T02:47:45;8.38;;;3.75;;
79227;SDS011;75303;53.496;10.214;2024-03-08T02:50:11;11.98;;;3.55;;
79227;SDS011;75303;53.496;10.214;2024-03-08T02:52:36;11.85;;;4.05;;
79227;SDS011;75303;53.496;10.214;2024-03-08T02:55:02;13.25;;;4.15;;
79227;SDS011;75303;53.496;10.214;2024-03-08T02:57:27;11.52;;;3.20;;
79227;SDS011;75303;53.496;10.214;2024-03-08T02:59:56;8.97;;;3.03;;
79227;SDS011;75303;53.496;10.214;2024-03-08T03:02:21;11.25;;;4.55;;
79227;SDS011;75303;53.496;10.214;2024-03-08T03:04:48;10.00;;;4.13;;
79227;SDS011;75303;53.496;10.214;2024-03-08T03:07:13;9.93;;;4.00;;
79227;SDS011;75303;53.496;10.214;2024-03-08T03:09:38;11.77;;;3.90;;
79227;SDS011;75303;53.496;10.214;2024-03-08T03:12:04;10.03;;;3.50;;
79227;SDS011;75303;53.496;10.214;2024-03-08T03:14:29;9.83;;;3.20;;
79227;SDS011;75303;53.496;10.214;2024-03-08T03:16:54;9.00;;;2.70;;
79227;SDS011;75303;53.496;10.214;2024-03-08T03:19:20;14.33;;;3.90;;
79227;SDS011;75303;53.496;10.214;2024-03-08T03:21:45;11.75;;;3.78;;
79227;SDS011;75303;53.496;10.214;2024-03-08T03:24:11;7.88;;;3.80;;
79227;SDS011;75303;53.496;10.214;2024-03-08T03:26:37;8.90;;;3.63;;
79227;SDS011;75303;53.496;10.214;2024-03-08T03:29:04;15.80;;;3.83;;
79227;SDS011;75303;53.496;10.214;2024-03-08T03:31:31;13.75;;;4.05;;
79227;SDS011;75303;53.496;10.214;2024-03-08T03:33:56;9.00;;;3.63;;
79227;SDS011;75303;53.496;10.214;2024-03-08T03:36:26;9.48;;;3.63;;
79227;SDS011;75303;53.496;10.214;2024-03-08T03:38:52;10.10;;;3.80;;
79227;SDS011;75303;53.496;10.214;2024-03-08T03:41:29;9.15;;;3.15;;
79227;SDS011;75303;53.496;10.214;2024-03-08T03:43:54;11.07;;;3.23;;
79227;SDS011;75303;53.496;10.214;2024-03-08T03:46:19;10.13;;;3.87;;
79227;SDS011;75303;53.496;10.214;2024-03-08T03:48:45;12.77;;;3.90;;
79227;SDS011;75303;53.496;10.214;2024-03-08T03:51:10;9.20;;;3.50;;
79227;SDS011;75303;53.496;10.214;2024-03-08T03:53:35;10.57;;;3.47;;
79227;SDS011;75303;53.496;10.214;2024-03-08T03:56:00;11.20;;;3.73;;
79227;SDS011;75303;53.496;10.214;2024-03-08T03:58:25;12.53;;;4.50;;
79227;SDS011;75303;53.496;10.214;2024-03-08T04:00:52;10.27;;;3.92;;
79227;SDS011;75303;53.496;10.214;2024-03-08T04:03:17;16.23;;;4.43;;
79227;SDS011;75303;53.496;10.214;2024-03-08T04:05:42;13.20;;;3.93;;
79227;SDS011;75303;53.496;10.214;2024-03-08T04:08:08;11.20;;;4.63;;
79227;SDS011;75303;53.496;10.214;2024-03-08T04:10:33;12.87;;;4.60;;
79227;SDS011;75303;53.496;10.214;2024-03-08T04:12:58;11.60;;;4.73;;
79227;SDS011;75303;53.496;10.214;2024-03-08T04:15:23;11.87;;;4.40;;
79227;SDS011;75303;53.496;10.214;2024-03-08T04:17:48;10.50;;;3.97;;
79227;SDS011;75303;53.496;10.214;2024-03-08T04:20:14;9.77;;;3.40;;
79227;SDS011;75303;53.496;10.214;2024-03-08T04:22:39;13.40;;;4.90;;
79227;SDS011;75303;53.496;10.214;2024-03-08T04:25:05;14.30;;;4.50;;
79227;SDS011;75303;53.496;10.214;2024-03-08T04:27:32;11.32;;;3.63;;
79227;SDS011;75303;53.496;10.214;2024-03-08T04:30:00;11.10;;;3.50;;
79227;SDS011;75303;53.496;10.214;2024-03-08T04:32:26;12.77;;;4.05;;
79227;SDS011;75303;53.496;10.214;2024-03-08T04:34:53;12.18;;;4.25;;
79227;SDS011;75303;53.496;10.214;2024-03-08T04:37:18;10.33;;;3.60;;
79227;SDS011;75303;53.496;10.214;2024-03-08T04:39:46;12.52;;;4.93;;
79227;SDS011;75303;53.496;10.214;2024-03-08T04:42:12;11.93;;;2.85;;
79227;SDS011;75303;53.496;10.214;2024-03-08T04:44:38;9.70;;;3.55;;
79227;SDS011;75303;53.496;10.214;2024-03-08T04:47:04;12.05;;;4.88;;
79227;SDS011;75303;53.496;10.214;2024-03-08T04:49:30;10.43;;;3.65;;
79227;SDS011;75303;53.496;10.214;2024-03-08T04:51:56;12.57;;;5.07;;
79227;SDS011;75303;53.496;10.214;2024-03-08T04:54:21;11.87;;;4.00;;
79227;SDS011;75303;53.496;10.214;2024-03-08T04:56:47;12.97;;;3.83;;
79227;SDS011;75303;53.496;10.214;2024-03-08T04:59:12;12.17;;;4.97;;
79227;SDS011;75303;53.496;10.214;2024-03-08T05:01:38;11.43;;;3.45;;
79227;SDS011;75303;53.496;10.214;2024-03-08T05:04:03;13.57;;;3.83;;
79227;SDS011;75303;53.496;10.214;2024-03-08T05:06:29;12.18;;;3.85;;
79227;SDS011;75303;53.496;10.214;2024-03-08T05:08:55;11.57;;;3.53;;
79227;SDS011;75303;53.496;10.214;2024-03-08T05:11:20;10.20;;;4.18;;
79227;SDS011;75303;53.496;10.214;2024-03-08T05:13:46;14.77;;;4.70;;
79227;SDS011;75303;53.496;10.214;2024-03-08T05:16:11;10.30;;;4.07;;
79227;SDS011;75303;53.496;10.214;2024-03-08T05:18:36;13.68;;;5.07;;
79227;SDS011;75303;53.496;10.214;2024-03-08T05:21:02;8.80;;;3.13;;
79227;SDS011;75303;53.496;10.214;2024-03-08T05:23:28;13.20;;;4.95;;
79227;SDS011;75303;53.496;10.214;2024-03-08T05:25:54;12.45;;;3.63;;
79227;SDS011;75303;53.496;10.214;2024-03-08T05:28:20;10.82;;;3.50;;
79227;SDS011;75303;53.496;10.214;2024-03-08T05:30:45;12.13;;;3.63;;
79227;SDS011;75303;53.496;10.214;2024-03-08T05:33:11;10.57;;;3.73;;
79227;SDS011;75303;53.496;10.214;2024-03-08T05:35:39;13.32;;;4.10;;
79227;SDS011;75303;53.496;10.214;2024-03-08T05:38:05;10.18;;;3.80;;
79227;SDS011;75303;53.496;10.214;2024-03-08T05:40:30;10.20;;;3.80;;
79227;SDS011;75303;53.496;10.214;2024-03-08T05:42:57;8.95;;;3.58;;
79227;SDS011;75303;53.496;10.214;2024-03-08T05:45:23;15.05;;;3.50;;
79227;SDS011;75303;53.496;10.214;2024-03-08T05:47:50;16.75;;;4.97;;
79227;SDS011;75303;53.496;10.214;2024-03-08T05:50:16;10.82;;;3.88;;
79227;SDS011;75303;53.496;10.214;2024-03-08T05:52:42;10.57;;;3.70;;
79227;SDS011;75303;53.496;10.214;2024-03-08T05:55:08;13.52;;;3.40;;
79227;SDS011;75303;53.496;10.214;2024-03-08T05:57:34;11.60;;;3.08;;
79227;SDS011;75303;53.496;10.214;2024-03-08T06:00:03;11.57;;;3.28;;
79227;SDS011;75303;53.496;10.214;2024-03-08T06:02:28;15.60;;;4.78;;
79227;SDS011;75303;53.496;10.214;2024-03-08T06:04:54;9.63;;;3.70;;
79227;SDS011;75303;53.496;10.214;2024-03-08T06:07:19;13.13;;;4.20;;
79227;SDS011;75303;53.496;10.214;2024-03-08T06:09:45;10.48;;;3.45;;
79227;SDS011;75303;53.496;10.214;2024-03-08T06:12:11;10.05;;;3.03;;
79227;SDS011;75303;53.496;10.214;2024-03-08T06:14:37;12.07;;;3.80;;
79227;SDS011;75303;53.496;10.214;2024-03-08T06:17:02;11.65;;;4.03;;
79227;SDS011;75303;53.496;10.214;2024-03-08T06:19:28;12.48;;;4.53;;
79227;SDS011;75303;53.496;10.214;2024-03-08T06:21:53;12.80;;;4.37;;
79227;SDS011;75303;53.496;10.214;2024-03-08T06:24:18;10.43;;;3.37;;
79227;SDS011;75303;53.496;10.214;2024-03-08T06:26:44;12.50;;;3.92;;
79227;SDS011;75303;53.496;10.214;2024-03-08T06:29:09;12.37;;;3.73;;
79227;SDS011;75303;53.496;10.214;2024-03-08T06:31:35;11.77;;;4.07;;
79227;SDS011;75303;53.496;10.214;2024-03-08T06:34:03;18.02;;;4.65;;
79227;SDS011;75303;53.496;10.214;2024-03-08T06:36:32;12.88;;;4.00;;
79227;SDS011;75303;53.496;10.214;2024-03-08T06:38:57;13.70;;;3.40;;
79227;SDS011;75303;53.496;10.214;2024-03-08T06:41:23;11.32;;;3.95;;
79227;SDS011;75303;53.496;10.214;2024-03-08T06:43:48;9.37;;;3.63;;
79227;SDS011;75303;53.496;10.214;2024-03-08T06:46:16;10.15;;;3.80;;
79227;SDS011;75303;53.496;10.214;2024-03-08T06:48:42;13.80;;;4.18;;
79227;SDS011;75303;53.496;10.214;2024-03-08T06:51:07;11.00;;;3.60;;
79227;SDS011;75303;53.496;10.214;2024-03-08T06:53:32;11.97;;;4.47;;
79227;SDS011;75303;53.496;10.214;2024-03-08T06:56:00;14.05;;;4.10;;
79227;SDS011;75303;53.496;10.214;2024-03-08T06:58:25;13.70;;;4.25;;
79227;SDS011;75303;53.496;10.214;2024-03-08T07:00:51;12.60;;;4.47;;
79227;SDS011;75303;53.496;10.214;2024-03-08T07:03:23;12.55;;;4.80;;
79227;SDS011;75303;53.496;10.214;2024-03-08T07:05:48;14.43;;;4.13;;
79227;SDS011;75303;53.496;10.214;2024-03-08T07:08:13;14.07;;;4.47;;
79227;SDS011;75303;53.496;10.214;2024-03-08T07:10:39;12.70;;;4.10;;
79227;SDS011;75303;53.496;10.214;2024-03-08T07:13:06;11.55;;;4.60;;
79227;SDS011;75303;53.496;10.214;2024-03-08T07:15:32;13.43;;;4.47;;
79227;SDS011;75303;53.496;10.214;2024-03-08T07:17:57;11.07;;;4.60;;
79227;SDS011;75303;53.496;10.214;2024-03-08T07:20:24;14.13;;;5.03;;
79227;SDS011;75303;53.496;10.214;2024-03-08T07:22:49;13.57;;;5.00;;
79227;SDS011;75303;53.496;10.214;2024-03-08T07:25:18;15.05;;;5.22;;
79227;SDS011;75303;53.496;10.214;2024-03-08T07:27:50;11.88;;;4.07;;
79227;SDS011;75303;53.496;10.214;2024-03-08T07:30:17;13.38;;;4.47;;
79227;SDS011;75303;53.496;10.214;2024-03-08T07:33:01;15.20;;;4.97;;
79227;SDS011;75303;53.496;10.214;2024-03-08T07:35:27;14.57;;;5.03;;
79227;SDS011;75303;53.496;10.214;2024-03-08T07:37:53;13.05;;;4.57;;
79227;SDS011;75303;53.496;10.214;2024-03-08T07:40:19;18.17;;;6.30;;
79227;SDS011;75303;53.496;10.214;2024-03-08T07:42:45;11.88;;;4.28;;
79227;SDS011;75303;53.496;10.214;2024-03-08T07:45:10;14.17;;;4.73;;
79227;SDS011;75303;53.496;10.214;2024-03-08T07:47:37;15.77;;;6.07;;
79227;SDS011;75303;53.496;10.214;2024-03-08T07:50:03;16.63;;;6.20;;
79227;SDS011;75303;53.496;10.214;2024-03-08T07:52:28;17.25;;;5.35;;
79227;SDS011;75303;53.496;10.214;2024-03-08T07:54:54;18.83;;;6.15;;
79227;SDS011;75303;53.496;10.214;2024-03-08T07:57:19;17.17;;;6.03;;
79227;SDS011;75303;53.496;10.214;2024-03-08T07:59:45;16.38;;;5.18;;
79227;SDS011;75303;53.496;10.214;2024-03-08T08:02:10;15.60;;;5.13;;
79227;SDS011;75303;53.496;10.214;2024-03-08T08:04:35;20.53;;;5.20;;
79227;SDS011;75303;53.496;10.214;2024-03-08T08:07:00;14.57;;;4.93;;
79227;SDS011;75303;53.496;10.214;2024-03-08T08:09:26;18.08;;;6.10;;
79227;SDS011;75303;53.496;10.214;2024-03-08T08:11:59;17.25;;;5.68;;
79227;SDS011;75303;53.496;10.214;2024-03-08T08:14:24;18.13;;;6.60;;
79227;SDS011;75303;53.496;10.214;2024-03-08T08:16:49;21.23;;;5.77;;
79227;SDS011;75303;53.496;10.214;2024-03-08T08:19:17;18.98;;;6.40;;
79227;SDS011;75303;53.496;10.214;2024-03-08T08:21:42;18.03;;;6.27;;
79227;SDS011;75303;53.496;10.214;2024-03-08T08:24:08;19.00;;;5.90;;
79227;SDS011;75303;53.496;10.214;2024-03-08T08:26:33;20.47;;;8.30;;
79227;SDS011;75303;53.496;10.214;2024-03-08T08:28:59;14.90;;;6.22;;
79227;SDS011;75303;53.496;10.214;2024-03-08T08:31:24;17.10;;;6.93;;
79227;SDS011;75303;53.496;10.214;2024-03-08T08:33:49;18.67;;;6.63;;
79227;SDS011;75303;53.496;10.214;2024-03-08T08:36:15;17.63;;;5.57;;
79227;SDS011;75303;53.496;10.214;2024-03-08T08:38:40;17.40;;;6.13;;
79227;SDS011;75303;53.496;10.214;2024-03-08T08:41:09;16.50;;;6.30;;
79227;SDS011;75303;53.496;10.214;2024-03-08T08:43:34;13.15;;;4.28;;
79227;SDS011;75303;53.496;10.214;2024-03-08T08:45:59;20.17;;;6.60;;
79227;SDS011;75303;53.496;10.214;2024-03-08T08:48:26;16.52;;;5.80;;
79227;SDS011;75303;53.496;10.214;2024-03-08T08:50:53;18.02;;;6.45;;
79227;SDS011;75303;53.496;10.214;2024-03-08T08:53:18;15.13;;;5.80;;
79227;SDS011;75303;53.496;10.214;2024-03-08T08:55:43;16.63;;;5.17;;
79227;SDS011;75303;53.496;10.214;2024-03-08T08:58:10;18.00;;;7.00;;
79227;SDS011;75303;53.496;10.214;2024-03-08T09:00:36;16.83;;;5.50;;
79227;SDS011;75303;53.496;10.214;2024-03-08T09:03:01;17.30;;;6.10;;
79227;SDS011;75303;53.496;10.214;2024-03-08T09:05:27;15.98;;;5.75;;
79227;SDS011;75303;53.496;10.214;2024-03-08T09:07:52;17.90;;;6.63;;
79227;SDS011;75303;53.496;10.214;2024-03-08T09:10:18;18.23;;;5.80;;
79227;SDS011;75303;53.496;10.214;2024-03-08T09:12:43;16.55;;;6.80;;
79227;SDS011;75303;53.496;10.214;2024-03-08T09:15:09;16.08;;;6.28;;
79227;SDS011;75303;53.496;10.214;2024-03-08T09:17:36;15.00;;;5.15;;
79227;SDS011;75303;53.496;10.214;2024-03-08T09:20:04;21.92;;;8.10;;
79227;SDS011;75303;53.496;10.214;2024-03-08T09:22:31;15.65;;;6.25;;
79227;SDS011;75303;53.496;10.214;2024-03-08T09:24:57;18.15;;;6.25;;
79227;SDS011;75303;53.496;10.214;2024-03-08T09:27:22;20.17;;;6.55;;
79227;SDS011;75303;53.496;10.214;2024-03-08T09:29:47;15.13;;;5.87;;
79227;SDS011;75303;53.496;10.214;2024-03-08T09:32:12;18.43;;;5.90;;
79227;SDS011;75303;53.496;10.214;2024-03-08T09:34:38;13.73;;;5.63;;
79227;SDS011;75303;53.496;10.214;2024-03-08T09:37:03;13.97;;;6.07;;
79227;SDS011;75303;53.496;10.214;2024-03-08T09:39:29;20.50;;;6.43;;
79227;SDS011;75303;53.496;10.214;2024-03-08T09:41:54;15.65;;;5.88;;
79227;SDS011;75303;53.496;10.214;2024-03-08T09:44:20;14.77;;;6.07;;
79227;SDS011;75303;53.496;10.214;2024-03-08T09:46:46;13.23;;;5.37;;
79227;SDS011;75303;53.496;10.214;2024-03-08T09:49:16;15.35;;;5.80;;
79227;SDS011;75303;53.496;10.214;2024-03-08T09:51:41;14.93;;;6.00;;
79227;SDS011;75303;53.496;10.214;2024-03-08T09:54:07;18.53;;;6.27;;
79227;SDS011;75303;53.496;10.214;2024-03-08T09:56:33;12.48;;;4.82;;
79227;SDS011;75303;53.496;10.214;2024-03-08T09:59:00;16.95;;;6.28;;
79227;SDS011;75303;53.496;10.214;2024-03-08T10:01:44;16.15;;;6.18;;
79227;SDS011;75303;53.496;10.214;2024-03-08T10:04:09;16.23;;;6.87;;
79227;SDS011;75303;53.496;10.214;2024-03-08T10:06:35;16.58;;;6.20;;
79227;SDS011;75303;53.496;10.214;2024-03-08T10:09:01;15.75;;;5.68;;
79227;SDS011;75303;53.496;10.214;2024-03-08T10:11:26;15.87;;;6.00;;
79227;SDS011;75303;53.496;10.214;2024-03-08T10:13:51;14.50;;;5.32;;
79227;SDS011;75303;53.496;10.214;2024-03-08T10:16:17;15.30;;;5.55;;
79227;SDS011;75303;53.496;10.214;2024-03-08T10:18:42;12.18;;;5.18;;
79227;SDS011;75303;53.496;10.214;2024-03-08T10:21:10;13.80;;;5.60;;
79227;SDS011;75303;53.496;10.214;2024-03-08T10:23:40;13.45;;;5.55;;
79227;SDS011;75303;53.496;10.214;2024-03-08T10:26:12;12.70;;;5.30;;
79227;SDS011;75303;53.496;10.214;2024-03-08T10:28:40;14.07;;;5.80;;
79227;SDS011;75303;53.496;10.214;2024-03-08T10:31:06;15.20;;;5.95;;
79227;SDS011;75303;53.496;10.214;2024-03-08T10:33:31;10.93;;;4.30;;
79227;SDS011;75303;53.496;10.214;2024-03-08T10:35:57;12.00;;;5.25;;
79227;SDS011;75303;53.496;10.214;2024-03-08T10:38:22;13.73;;;5.23;;
79227;SDS011;75303;53.496;10.214;2024-03-08T10:40:48;12.02;;;5.97;;
79227;SDS011;75303;53.496;10.214;2024-03-08T10:43:18;15.82;;;5.60;;
79227;SDS011;75303;53.496;10.214;2024-03-08T10:45:50;12.65;;;5.78;;
79227;SDS011;75303;53.496;10.214;2024-03-08T10:48:27;15.82;;;6.22;;
79227;SDS011;75303;53.496;10.214;2024-03-08T10:50:57;15.60;;;6.47;;
79227;SDS011;75303;53.496;10.214;2024-03-08T10:53:26;14.32;;;5.32;;
79227;SDS011;75303;53.496;10.214;2024-03-08T10:55:52;12.63;;;5.22;;
79227;SDS011;75303;53.496;10.214;2024-03-08T10:58:19;16.63;;;5.55;;
79227;SDS011;75303;53.496;10.214;2024-03-08T11:00:46;14.52;;;4.32;;
79227;SDS011;75303;53.496;10.214;2024-03-08T11:06:05;14.63;;;5.35;;
79227;SDS011;75303;53.496;10.214;2024-03-08T11:08:36;14.93;;;6.40;;
79227;SDS011;75303;53.496;10.214;2024-03-08T11:11:03;15.43;;;6.47;;
79227;SDS011;75303;53.496;10.214;2024-03-08T11:13:33;13.55;;;6.05;;
79227;SDS011;75303;53.496;10.214;2024-03-08T11:16:07;13.23;;;6.18;;
79227;SDS011;75303;53.496;10.214;2024-03-08T11:18:34;16.33;;;6.45;;
79227;SDS011;75303;53.496;10.214;2024-03-08T11:21:03;14.25;;;5.10;;
79227;SDS011;75303;53.496;10.214;2024-03-08T11:23:38;11.45;;;4.45;;
79227;SDS011;75303;53.496;10.214;2024-03-08T11:26:17;11.02;;;5.00;;
79227;SDS011;75303;53.496;10.214;2024-03-08T11:28:46;13.50;;;4.68;;
79227;SDS011;75303;53.496;10.214;2024-03-08T11:33:37;16.70;;;5.67;;
79227;SDS011;75303;53.496;10.214;2024-03-08T11:38:47;12.40;;;4.85;;
79227;SDS011;75303;53.496;10.214;2024-03-08T11:41:18;13.40;;;5.45;;
79227;SDS011;75303;53.496;10.214;2024-03-08T11:43:45;21.83;;;7.10;;
79227;SDS011;75303;53.496;10.214;2024-03-08T11:46:10;18.30;;;7.03;;
79227;SDS011;75303;53.496;10.214;2024-03-08T11:53:36;15.15;;;5.35;;
79227;SDS011;75303;53.496;10.214;2024-03-08T11:56:06;13.30;;;5.40;;
79227;SDS011;75303;53.496;10.214;2024-03-08T11:58:32;14.98;;;5.82;;
79227;SDS011;75303;53.496;10.214;2024-03-08T12:01:30;14.50;;;5.20;;
79227;SDS011;75303;53.496;10.214;2024-03-08T12:03:58;11.68;;;5.65;;
79227;SDS011;75303;53.496;10.214;2024-03-08T12:06:24;17.38;;;6.10;;
79227;SDS011;75303;53.496;10.214;2024-03-08T12:08:50;13.13;;;6.18;;
79227;SDS011;75303;53.496;10.214;2024-03-08T12:11:22;14.63;;;5.57;;
79227;SDS011;75303;53.496;10.214;2024-03-08T12:13:48;13.93;;;5.20;;
79227;SDS011;75303;53.496;10.214;2024-03-08T12:16:15;13.02;;;4.88;;
79227;SDS011;75303;53.496;10.214;2024-03-08T12:18:43;10.63;;;5.60;;
79227;SDS011;75303;53.496;10.214;2024-03-08T12:21:09;12.98;;;5.07;;
79227;SDS011;75303;53.496;10.214;2024-03-08T12:23:37;13.20;;;5.90;;
79227;SDS011;75303;53.496;10.214;2024-03-08T12:26:17;15.60;;;5.97;;
79227;SDS011;75303;53.496;10.214;2024-03-08T12:28:43;10.80;;;5.53;;
79227;SDS011;75303;53.496;10.214;2024-03-08T12:31:11;13.55;;;5.45;;
79227;SDS011;75303;53.496;10.214;2024-03-08T12:33:37;12.05;;;5.07;;
79227;SDS011;75303;53.496;10.214;2024-03-08T12:36:14;12.27;;;5.60;;
79227;SDS011;75303;53.496;10.214;2024-03-08T12:38:40;11.43;;;4.72;;
79227;SDS011;75303;53.496;10.214;2024-03-08T12:41:08;18.85;;;5.80;;
79227;SDS011;75303;53.496;10.214;2024-03-08T12:43:34;13.60;;;4.90;;
79227;SDS011;75303;53.496;10.214;2024-03-08T12:45:59;9.97;;;4.20;;
79227;SDS011;75303;53.496;10.214;2024-03-08T12:48:25;15.05;;;5.55;;
79227;SDS011;75303;53.496;10.214;2024-03-08T12:50:50;12.13;;;4.97;;
79227;SDS011;75303;53.496;10.214;2024-03-08T12:53:16;10.32;;;4.60;;
79227;SDS011;75303;53.496;10.214;2024-03-08T12:55:42;12.88;;;5.50;;
79227;SDS011;75303;53.496;10.214;2024-03-08T12:58:07;13.03;;;6.00;;
79227;SDS011;75303;53.496;10.214;2024-03-08T13:00:33;13.27;;;5.70;;
79227;SDS011;75303;53.496;10.214;2024-03-08T13:03:01;13.13;;;4.88;;
79227;SDS011;75303;53.496;10.214;2024-03-08T13:05:27;14.30;;;5.65;;
79227;SDS011;75303;53.496;10.214;2024-03-08T13:07:53;13.75;;;5.63;;
79227;SDS011;75303;53.496;10.214;2024-03-08T13:10:19;11.50;;;4.53;;
79227;SDS011;75303;53.496;10.214;2024-03-08T13:12:45;12.70;;;5.80;;
79227;SDS011;75303;53.496;10.214;2024-03-08T13:15:10;12.27;;;6.13;;
79227;SDS011;75303;53.496;10.214;2024-03-08T13:17:40;13.10;;;6.95;;
79227;SDS011;75303;53.496;10.214;2024-03-08T13:20:07;11.70;;;5.32;;
79227;SDS011;75303;53.496;10.214;2024-03-08T13:22:34;12.10;;;6.22;;
79227;SDS011;75303;53.496;10.214;2024-03-08T13:25:00;15.38;;;7.38;;
79227;SDS011;75303;53.496;10.214;2024-03-08T13:27:27;15.07;;;7.10;;
79227;SDS011;75303;53.496;10.214;2024-03-08T13:29:53;12.55;;;6.45;;
79227;SDS011;75303;53.496;10.214;2024-03-08T13:32:18;10.23;;;5.68;;
79227;SDS011;75303;53.496;10.214;2024-03-08T13:34:45;12.02;;;5.13;;
79227;SDS011;75303;53.496;10.214;2024-03-08T13:37:15;12.70;;;6.85;;
79227;SDS011;75303;53.496;10.214;2024-03-08T13:39:42;9.93;;;5.03;;
79227;SDS011;75303;53.496;10.214;2024-03-08T13:42:10;15.30;;;7.80;;
79227;SDS011;75303;53.496;10.214;2024-03-08T13:44:38;12.23;;;6.50;;
79227;SDS011;75303;53.496;10.214;2024-03-08T13:47:10;10.38;;;5.28;;
79227;SDS011;75303;53.496;10.214;2024-03-08T13:49:36;11.25;;;6.15;;
79227;SDS011;75303;53.496;10.214;2024-03-08T13:52:02;11.80;;;6.50;;
79227;SDS011;75303;53.496;10.214;2024-03-08T13:54:29;10.05;;;5.88;;
79227;SDS011;75303;53.496;10.214;2024-03-08T13:56:56;10.95;;;6.28;;
79227;SDS011;75303;53.496;10.214;2024-03-08T13:59:21;13.65;;;6.38;;
79227;SDS011;75303;53.496;10.214;2024-03-08T14:01:54;12.15;;;6.18;;
79227;SDS011;75303;53.496;10.214;2024-03-08T14:04:19;11.93;;;6.00;;
79227;SDS011;75303;53.496;10.214;2024-03-08T14:06:44;12.23;;;5.10;;
79227;SDS011;75303;53.496;10.214;2024-03-08T14:09:10;10.27;;;5.93;;
79227;SDS011;75303;53.496;10.214;2024-03-08T14:11:41;12.82;;;6.35;;
79227;SDS011;75303;53.496;10.214;2024-03-08T14:14:09;11.63;;;4.85;;
79227;SDS011;75303;53.496;10.214;2024-03-08T14:16:34;11.88;;;5.35;;
79227;SDS011;75303;53.496;10.214;2024-03-08T14:19:02;13.32;;;5.60;;
79227;SDS011;75303;53.496;10.214;2024-03-08T14:21:30;12.05;;;4.55;;
79227;SDS011;75303;53.496;10.214;2024-03-08T14:23:58;10.32;;;4.75;;
79227;SDS011;75303;53.496;10.214;2024-03-08T14:26:24;12.60;;;5.35;;
79227;SDS011;75303;53.496;10.214;2024-03-08T14:28:49;10.90;;;4.07;;
79227;SDS011;75303;53.496;10.214;2024-03-08T14:31:19;10.10;;;4.25;;